Time;durP1;ratioP1;P1;durP2;ratioP2;P2;SDS_P1;SDS_P2;PMS_P1;PMS_P2;Temp;Humidity;BMP_temperature;BMP_pressure;BME280_temperature;BME280_humidity;BME280_pressure;Samples;Min_cycle;Max_cycle;Signal;HPM_P1;HPM_P2
2023/04/07 00:00:26;;;;;;;5.00;2.35;;;;;;;4.30;50.43;92405.09;5127217;27;20039;-76
2023/04/07 00:02:52;;;;;;;4.10;2.42;;;;;;;4.22;50.57;92397.75;5105906;27;20084;-77
2023/04/07 00:05:18;;;;;;;5.57;2.70;;;;;;;4.17;50.78;92402.91;5122943;27;20031;-77
2023/04/07 00:07:43;;;;;;;6.63;2.75;;;;;;;4.11;50.80;92396.91;5089205;27;20024;-77
2023/04/07 00:10:09;;;;;;;6.28;3.00;;;;;;;4.05;50.92;92391.94;5124073;27;20450;-77
2023/04/07 00:12:35;;;;;;;5.18;2.72;;;;;;;4.00;50.77;92387.50;5125829;27;20035;-77
2023/04/07 00:15:01;;;;;;;6.22;3.13;;;;;;;3.98;51.32;92402.50;5125139;27;20039;-76
2023/04/07 00:17:26;;;;;;;8.07;3.30;;;;;;;3.94;51.08;92391.88;5126261;27;20040;-77
2023/04/07 00:19:52;;;;;;;6.78;3.50;;;;;;;3.94;50.79;92393.66;5125429;27;20122;-77
2023/04/07 00:22:17;;;;;;;6.45;3.20;;;;;;;3.86;50.96;92388.94;5128766;27;20034;-77
2023/04/07 00:24:43;;;;;;;8.30;3.30;;;;;;;3.82;51.40;92388.66;5126206;27;20037;-77
2023/04/07 00:27:09;;;;;;;5.40;2.85;;;;;;;3.71;51.29;92381.81;5125369;27;20032;-77
2023/04/07 00:29:34;;;;;;;5.35;2.85;;;;;;;3.76;51.64;92389.66;5107940;27;20031;-77
2023/04/07 00:32:00;;;;;;;5.15;2.80;;;;;;;3.75;51.73;92381.09;5124754;27;20130;-77
2023/04/07 00:34:26;;;;;;;5.07;2.60;;;;;;;3.72;51.87;92384.16;5129234;27;20045;-75
2023/04/07 00:36:52;;;;;;;5.93;3.17;;;;;;;3.70;51.84;92388.03;5096398;27;20558;-77
2023/04/07 00:39:18;;;;;;;6.25;2.92;;;;;;;3.66;52.33;92382.56;5127699;27;20043;-77
2023/04/07 00:41:46;;;;;;;6.70;2.65;;;;;;;3.63;52.67;92375.28;5103610;27;20039;-77
2023/04/07 00:44:12;;;;;;;5.07;2.40;;;;;;;3.64;52.73;92381.25;5104643;27;20031;-77
2023/04/07 00:46:38;;;;;;;4.35;2.40;;;;;;;3.60;53.13;92380.16;5124819;27;20153;-77
2023/04/07 00:49:05;;;;;;;5.80;2.53;;;;;;;3.62;52.89;92378.88;5125221;27;20031;-77
2023/04/07 00:51:31;;;;;;;4.60;2.58;;;;;;;3.62;53.06;92372.94;5107352;27;20035;-77
2023/04/07 00:53:57;;;;;;;5.60;2.80;;;;;;;3.61;53.13;92369.56;5105555;27;20047;-77
2023/04/07 00:56:23;;;;;;;4.43;2.40;;;;;;;3.64;53.31;92365.72;5105391;28;20126;-76
2023/04/07 00:58:48;;;;;;;5.65;2.60;;;;;;;3.65;53.54;92356.94;5108365;27;20560;-77
2023/04/07 01:01:29;;;;;;;4.70;2.35;;;;;;;3.68;53.09;92352.03;5106703;27;20046;-76
2023/04/07 01:04:11;;;;;;;4.13;2.25;;;;;;;3.74;53.09;92347.69;5093128;27;20034;-77
2023/04/07 01:06:42;;;;;;;4.47;2.35;;;;;;;3.71;52.80;92338.59;5124296;27;20438;-77
2023/04/07 01:09:29;;;;;;;6.47;2.42;;;;;;;3.77;52.82;92341.22;5105861;27;20040;-77
2023/04/07 01:12:07;;;;;;;8.93;3.20;;;;;;;3.83;51.83;92348.78;5103679;27;20066;-77
2023/04/07 01:14:39;;;;;;;5.40;3.00;;;;;;;3.86;51.79;92353.47;5105096;27;20577;-77
2023/04/07 01:17:24;;;;;;;7.63;4.03;;;;;;;3.87;51.62;92346.47;5106959;27;20031;-77
2023/04/07 01:20:02;;;;;;;7.80;4.22;;;;;;;3.85;51.67;92341.56;5108477;27;20092;-77
2023/04/07 01:22:45;;;;;;;8.65;4.15;;;;;;;3.82;52.71;92331.69;5105338;27;20117;-78
2023/04/07 01:25:47;;;;;;;8.25;3.70;;;;;;;3.77;53.46;92336.06;5123735;27;20079;-77
2023/04/07 01:28:42;;;;;;;6.30;3.17;;;;;;;3.71;53.60;92342.97;5107632;27;20059;-77
2023/04/07 01:31:09;;;;;;;6.47;3.20;;;;;;;3.63;53.14;92338.28;5105981;27;20055;-77
2023/04/07 01:33:36;;;;;;;5.50;2.90;;;;;;;3.60;53.55;92343.94;5127804;27;20106;-77
2023/04/07 01:36:03;;;;;;;6.50;2.70;;;;;;;3.53;54.36;92339.75;5107973;27;20036;-77
2023/04/07 01:38:30;;;;;;;5.32;2.60;;;;;;;3.45;54.66;92335.03;5108212;27;20519;-77
2023/04/07 01:40:58;;;;;;;5.22;2.40;;;;;;;3.45;54.10;92340.19;5103265;27;20456;-77
2023/04/07 01:43:25;;;;;;;5.05;2.15;;;;;;;3.47;53.59;92332.97;5110506;27;20373;-77
2023/04/07 01:45:53;;;;;;;4.90;2.28;;;;;;;3.50;53.18;92335.06;5102784;28;20050;-76
2023/04/07 01:48:19;;;;;;;4.80;2.50;;;;;;;3.49;53.23;92323.16;5106128;27;20032;-77
2023/04/07 01:50:45;;;;;;;5.13;2.30;;;;;;;3.52;53.21;92333.00;5104460;27;20106;-77
2023/04/07 01:53:14;;;;;;;5.97;2.95;;;;;;;3.51;53.44;92336.63;5106683;27;20063;-77
2023/04/07 01:55:41;;;;;;;7.07;3.45;;;;;;;3.58;53.39;92335.63;5122315;27;20322;-77
2023/04/07 01:58:08;;;;;;;8.48;3.88;;;;;;;3.55;53.43;92340.25;5104370;27;20039;-77
2023/04/07 02:00:36;;;;;;;8.27;4.45;;;;;;;3.50;53.64;92339.47;5103285;27;20036;-77
2023/04/07 02:03:19;;;;;;;11.38;5.85;;;;;;;3.58;53.74;92333.84;5090324;27;20038;-77
2023/04/07 02:05:47;;;;;;;8.23;4.90;;;;;;;3.59;54.34;92337.97;5124056;27;20031;-77
2023/04/07 02:08:16;;;;;;;9.13;5.38;;;;;;;3.55;55.04;92326.56;5103438;27;20170;-77
2023/04/07 02:10:45;;;;;;;10.05;5.40;;;;;;;3.45;55.50;92331.66;5103750;27;20063;-77
2023/04/07 02:13:15;;;;;;;8.70;5.05;;;;;;;3.42;55.75;92342.47;5087251;27;20031;-77
2023/04/07 02:15:44;;;;;;;9.95;5.68;;;;;;;3.37;55.73;92337.28;5108175;27;20027;-77
2023/04/07 02:18:12;;;;;;;10.73;5.22;;;;;;;3.29;56.43;92343.69;5105192;27;20038;-77
2023/04/07 02:20:40;;;;;;;10.63;5.43;;;;;;;3.24;56.94;92338.44;5105263;27;20028;-77
2023/04/07 02:23:09;;;;;;;8.95;5.07;;;;;;;3.17;57.28;92336.03;5088433;27;20035;-76
2023/04/07 02:25:37;;;;;;;8.55;4.95;;;;;;;3.12;57.60;92349.69;5101129;28;20042;-77
2023/04/07 02:28:03;;;;;;;9.70;5.07;;;;;;;3.08;56.93;92348.63;5103048;27;20037;-77
2023/04/07 02:30:29;;;;;;;10.07;5.07;;;;;;;3.06;56.48;92337.75;5087402;27;20039;-77
2023/04/07 02:32:55;;;;;;;12.38;5.43;;;;;;;3.05;56.93;92327.66;5102417;28;20393;-77
2023/04/07 02:35:21;;;;;;;9.25;4.72;;;;;;;3.09;56.06;92332.09;5125079;27;20040;-77
2023/04/07 02:37:47;;;;;;;8.52;4.70;;;;;;;3.08;57.00;92327.16;5104265;28;20031;-76
2023/04/07 02:40:13;;;;;;;8.13;4.72;;;;;;;3.06;57.60;92334.38;5122240;27;20045;-76
2023/04/07 02:42:39;;;;;;;10.13;4.82;;;;;;;3.00;57.86;92330.97;5104798;28;20173;-77
2023/04/07 02:45:06;;;;;;;8.43;4.32;;;;;;;2.96;57.37;92332.47;5122970;27;20035;-77
2023/04/07 02:47:33;;;;;;;10.50;4.25;;;;;;;2.96;56.77;92329.13;5125913;27;20254;-77
2023/04/07 02:49:58;;;;;;;8.93;3.60;;;;;;;2.92;56.77;92323.63;5104632;27;20048;-77
2023/04/07 02:52:24;;;;;;;8.65;3.92;;;;;;;2.88;57.60;92323.34;5105112;28;20132;-77
2023/04/07 02:54:51;;;;;;;6.93;3.85;;;;;;;2.86;57.39;92329.78;5108375;28;20031;-76
2023/04/07 02:57:20;;;;;;;6.85;3.35;;;;;;;2.82;56.06;92328.72;5088586;28;20035;-77
2023/04/07 02:59:46;;;;;;;7.32;3.58;;;;;;;2.79;56.14;92329.97;5085932;28;20493;-77
2023/04/07 03:02:13;;;;;;;6.43;3.53;;;;;;;2.79;55.68;92327.41;5086288;28;20388;-76
2023/04/07 03:04:39;;;;;;;10.48;3.92;;;;;;;2.80;55.69;92317.84;5104039;28;20042;-77
2023/04/07 03:07:05;;;;;;;6.80;3.80;;;;;;;2.80;56.05;92323.00;5126321;27;20481;-76
2023/04/07 03:09:31;;;;;;;9.25;4.13;;;;;;;2.81;55.81;92321.97;5109969;27;20038;-77
2023/04/07 03:11:57;;;;;;;8.07;3.97;;;;;;;2.82;55.91;92318.38;5126071;27;20035;-77
2023/04/07 03:14:24;;;;;;;7.45;4.10;;;;;;;2.79;55.35;92316.25;5089522;27;20500;-77
2023/04/07 03:16:50;;;;;;;8.45;3.63;;;;;;;2.77;55.34;92318.28;5126257;27;20034;-77
2023/04/07 03:19:16;;;;;;;8.82;4.40;;;;;;;2.74;55.46;92316.97;5110403;27;20508;-77
2023/04/07 03:21:45;;;;;;;7.25;3.63;;;;;;;2.74;55.29;92316.22;5092154;27;20029;-77
2023/04/07 03:24:11;;;;;;;10.90;4.15;;;;;;;2.75;55.75;92312.59;5088992;27;20042;-77
2023/04/07 03:26:37;;;;;;;9.52;4.20;;;;;;;2.72;55.86;92313.84;5110807;27;20035;-77
2023/04/07 03:29:05;;;;;;;10.65;4.20;;;;;;;2.69;56.40;92309.19;5110091;27;20413;-77
2023/04/07 03:31:31;;;;;;;7.80;4.40;;;;;;;2.68;56.35;92315.38;5110018;27;20027;-77
2023/04/07 03:33:57;;;;;;;10.20;5.05;;;;;;;2.68;56.56;92313.56;5125383;27;20046;-77
2023/04/07 03:36:23;;;;;;;11.38;5.10;;;;;;;2.67;56.52;92304.25;5124820;27;20063;-76
2023/04/07 03:38:49;;;;;;;10.15;4.72;;;;;;;2.66;57.01;92302.69;5105967;27;20040;-77
2023/04/07 03:41:16;;;;;;;10.23;5.47;;;;;;;2.65;57.25;92302.91;5106807;27;20666;-77
2023/04/07 03:43:42;;;;;;;12.77;5.07;;;;;;;2.61;57.79;92302.66;5110618;28;20043;-77
2023/04/07 03:46:09;;;;;;;12.25;5.38;;;;;;;2.54;58.17;92299.44;5098833;27;20043;-77
2023/04/07 03:48:34;;;;;;;11.60;5.38;;;;;;;2.57;59.01;92300.75;5107099;27;20083;-77
2023/04/07 03:51:05;;;;;;;10.65;5.43;;;;;;;2.55;59.50;92300.25;5095227;27;20045;-76
2023/04/07 03:53:31;;;;;;;10.05;5.53;;;;;;;2.53;59.63;92305.63;5105518;27;20056;-77
2023/04/07 03:55:58;;;;;;;9.85;5.72;;;;;;;2.54;60.00;92306.41;5108047;27;20119;-76
2023/04/07 03:58:41;;;;;;;11.85;4.85;;;;;;;2.51;59.13;92302.50;5107840;27;20397;-77
2023/04/07 04:01:11;;;;;;;10.45;5.07;;;;;;;2.50;59.07;92293.22;5091785;27;20669;-76
2023/04/07 04:03:38;;;;;;;11.40;5.30;;;;;;;2.56;59.23;92299.97;5106906;27;20046;-76
2023/04/07 04:06:16;;;;;;;11.35;5.22;;;;;;;2.57;59.76;92300.75;5107528;27;20035;-76
2023/04/07 04:08:42;;;;;;;10.63;5.38;;;;;;;2.54;60.30;92294.25;5106758;27;20617;-76
2023/04/07 04:11:08;;;;;;;12.20;5.55;;;;;;;2.53;60.03;92295.31;5105141;28;20034;-76
2023/04/07 04:13:41;;;;;;;11.57;5.18;;;;;;;2.52;59.98;92298.91;5091124;27;20400;-77
2023/04/07 04:16:07;;;;;;;8.75;4.40;;;;;;;2.52;59.86;92296.31;5122433;27;20031;-77
2023/04/07 04:18:35;;;;;;;8.63;4.30;;;;;;;2.51;59.47;92289.59;5108373;27;20040;-77
2023/04/07 04:21:02;;;;;;;8.90;4.75;;;;;;;2.48;59.37;92290.84;5107572;27;20135;-77
2023/04/07 04:23:28;;;;;;;9.23;4.25;;;;;;;2.48;59.63;92287.50;5105251;27;20497;-76
2023/04/07 04:25:56;;;;;;;8.77;4.40;;;;;;;2.46;58.97;92284.38;5108928;27;20124;-76
2023/04/07 04:28:22;;;;;;;8.00;3.80;;;;;;;2.47;59.07;92285.91;5093237;27;20122;-76
2023/04/07 04:30:48;;;;;;;9.32;3.95;;;;;;;2.44;60.05;92276.06;5092299;27;20046;-76
2023/04/07 04:33:14;;;;;;;7.88;3.80;;;;;;;2.45;61.07;92277.63;5094264;27;20031;-76
2023/04/07 04:35:49;;;;;;;7.97;3.80;;;;;;;2.45;61.55;92283.56;5107163;27;20035;-76
2023/04/07 04:38:18;;;;;;;7.35;3.55;;;;;;;2.44;62.31;92276.84;5103755;27;20042;-76
2023/04/07 04:40:50;;;;;;;7.75;3.90;;;;;;;2.44;61.37;92281.25;5090953;27;20592;-76
2023/04/07 04:43:20;;;;;;;8.80;4.38;;;;;;;2.47;60.02;92284.13;5109468;27;20058;-76
2023/04/07 04:45:46;;;;;;;8.77;4.63;;;;;;;2.49;59.96;92282.06;5108062;27;20128;-75
2023/04/07 04:48:14;;;;;;;8.90;4.10;;;;;;;2.48;60.11;92277.94;5128382;27;20027;-76
2023/04/07 04:50:41;;;;;;;7.93;4.00;;;;;;;2.50;61.00;92280.28;5110364;27;20037;-77
2023/04/07 04:53:10;;;;;;;7.10;4.00;;;;;;;2.47;61.33;92283.34;5110606;27;20085;-76
2023/04/07 04:55:46;;;;;;;6.15;3.50;;;;;;;2.47;60.96;92285.91;5101385;27;20392;-76
2023/04/07 04:58:14;;;;;;;6.03;3.30;;;;;;;2.43;61.76;92283.06;5105837;27;20046;-76
2023/04/07 05:00:46;;;;;;;7.10;3.17;;;;;;;2.42;61.54;92286.66;5112926;27;20033;-79
2023/04/07 05:03:12;;;;;;;9.68;3.92;;;;;;;2.42;61.43;92288.44;5112660;27;20130;-78
2023/04/07 05:05:41;;;;;;;7.38;3.92;;;;;;;2.43;62.23;92287.41;5096638;27;20039;-78
2023/04/07 05:08:09;;;;;;;6.38;3.40;;;;;;;2.43;62.17;92282.25;5112521;27;20035;-80
2023/04/07 05:10:40;;;;;;;7.82;3.50;;;;;;;2.43;62.58;92284.84;5111815;27;20030;-77
2023/04/07 05:13:09;;;;;;;7.72;3.70;;;;;;;2.43;61.29;92285.63;5106599;27;20035;-78
2023/04/07 05:15:35;;;;;;;7.70;4.20;;;;;;;2.46;60.89;92285.16;5109303;27;20031;-77
2023/04/07 05:18:02;;;;;;;7.30;4.10;;;;;;;2.49;61.54;92294.22;5100473;27;20039;-78
2023/04/07 05:20:29;;;;;;;8.02;3.92;;;;;;;2.51;61.64;92292.19;5095612;27;20400;-78
2023/04/07 05:22:55;;;;;;;7.53;3.75;;;;;;;2.55;62.55;92282.16;5108514;27;20039;-79
2023/04/07 05:25:25;;;;;;;6.70;3.50;;;;;;;2.56;62.23;92289.63;5110317;27;20045;-78
2023/04/07 05:27:58;;;;;;;9.20;4.35;;;;;;;2.57;62.36;92291.22;5112478;27;20080;-79
2023/04/07 05:30:24;;;;;;;8.63;4.35;;;;;;;2.58;61.81;92292.00;5125016;27;20034;-78
2023/04/07 05:32:52;;;;;;;10.75;4.22;;;;;;;2.64;62.21;92299.56;5130894;27;20023;-79
2023/04/07 05:35:27;;;;;;;7.10;4.20;;;;;;;2.69;61.79;92299.59;5097991;27;20027;-78
2023/04/07 05:37:55;;;;;;;8.43;4.25;;;;;;;2.75;60.70;92294.50;5099699;27;20031;-78
2023/04/07 05:40:21;;;;;;;8.05;4.15;;;;;;;2.81;60.67;92290.94;5114023;27;20117;-79
2023/04/07 05:42:47;;;;;;;10.35;4.10;;;;;;;2.85;60.38;92282.47;5097482;27;20404;-78
2023/04/07 05:45:13;;;;;;;9.85;4.47;;;;;;;2.95;60.00;92289.56;5116319;27;20450;-78
2023/04/07 05:47:43;;;;;;;9.18;4.47;;;;;;;3.03;59.88;92289.09;5098130;27;20082;-78
2023/04/07 05:50:11;;;;;;;8.57;4.35;;;;;;;3.12;59.53;92292.81;5115274;27;20043;-78
2023/04/07 05:52:37;;;;;;;10.85;4.63;;;;;;;3.20;60.11;92283.84;5092531;28;20071;-78
2023/04/07 05:55:15;;;;;;;10.30;4.82;;;;;;;3.30;60.55;92298.66;5076786;28;20055;-77
2023/04/07 05:57:41;;;;;;;11.70;4.57;;;;;;;3.37;60.00;92285.50;5107986;28;20066;-78
2023/04/07 06:00:08;;;;;;;8.88;4.90;;;;;;;3.49;59.84;92297.28;5107857;28;20034;-77
2023/04/07 06:02:40;;;;;;;8.52;4.70;;;;;;;3.60;59.53;92300.69;5110248;28;20054;-78
2023/04/07 06:05:10;;;;;;;10.20;4.00;;;;;;;3.73;59.05;92296.91;5123821;27;20096;-79
2023/04/07 06:07:37;;;;;;;8.43;3.78;;;;;;;3.84;59.07;92297.78;5091123;28;20035;-77
2023/04/07 06:10:04;;;;;;;7.63;4.18;;;;;;;3.93;58.57;92299.66;5104632;28;20336;-79
2023/04/07 06:12:29;;;;;;;9.45;4.25;;;;;;;4.05;58.46;92311.63;5101370;28;20039;-78
2023/04/07 06:14:55;;;;;;;10.65;4.80;;;;;;;4.17;58.23;92301.88;5108051;28;20028;-78
2023/04/07 06:17:22;;;;;;;19.08;4.93;;;;;;;4.30;54.74;92301.44;5100003;28;20042;-78
2023/04/07 06:19:47;;;;;;;10.68;4.75;;;;;;;4.36;54.25;92300.41;5087571;28;20039;-78
2023/04/07 06:22:14;;;;;;;10.52;5.38;;;;;;;4.47;53.30;92305.63;5106283;28;20034;-78
2023/04/07 06:24:40;;;;;;;39.83;26.77;;;;;;;4.55;54.80;92294.81;5103500;28;20061;-78
2023/04/07 06:27:06;;;;;;;31.20;17.42;;;;;;;4.94;55.13;92308.13;5114115;27;20032;-78
2023/04/07 06:29:32;;;;;;;20.10;10.50;;;;;;;5.49;54.83;92303.28;5107597;28;20147;-79
2023/04/07 06:32:01;;;;;;;12.93;5.97;;;;;;;5.82;50.46;92306.44;5102999;28;20027;-78
2023/04/07 06:34:27;;;;;;;10.52;6.00;;;;;;;6.36;48.70;92303.25;5107795;28;20043;-78
2023/04/07 06:36:53;;;;;;;13.50;5.70;;;;;;;6.56;47.49;92302.41;5102236;28;20066;-79
2023/04/07 06:39:19;;;;;;;13.98;5.90;;;;;;;6.61;46.44;92301.63;5103453;28;20031;-77
2023/04/07 06:41:45;;;;;;;13.73;6.60;;;;;;;6.54;46.54;92298.53;5101551;28;20028;-78
2023/04/07 06:44:11;;;;;;;10.60;6.22;;;;;;;6.43;46.05;92301.16;5108208;28;20352;-77
2023/04/07 06:46:37;;;;;;;17.50;6.78;;;;;;;6.50;45.81;92298.28;5109380;28;20059;-80
2023/04/07 06:49:03;;;;;;;14.63;6.50;;;;;;;6.71;44.73;92300.81;5108798;28;20034;-78
2023/04/07 06:51:29;;;;;;;11.68;6.05;;;;;;;6.70;45.97;92297.44;5112230;28;20500;-79
2023/04/07 06:53:54;;;;;;;10.88;6.00;;;;;;;6.79;45.03;92298.44;5128827;27;20039;-79
2023/04/07 06:56:21;;;;;;;11.80;6.30;;;;;;;6.86;45.29;92298.91;5112417;28;21609;-79
2023/04/07 06:58:47;;;;;;;14.23;6.40;;;;;;;7.32;44.32;92294.50;5132103;28;20035;-78
2023/04/07 07:01:13;;;;;;;13.65;6.55;;;;;;;7.91;43.23;92293.56;5111775;28;20507;-78
2023/04/07 07:03:38;;;;;;;11.75;6.78;;;;;;;8.28;43.38;92292.19;5129433;28;20031;-78
2023/04/07 07:06:04;;;;;;;11.68;7.13;;;;;;;8.20;41.90;92295.41;5125815;28;20054;-77
2023/04/07 07:08:30;;;;;;;13.63;7.60;;;;;;;8.04;42.42;92305.19;5127458;28;20121;-79
2023/04/07 07:10:56;;;;;;;15.20;6.72;;;;;;;8.12;42.65;92299.38;5126497;28;20110;-77
2023/04/07 07:13:25;;;;;;;8.52;4.55;;;;;;;7.96;44.18;92293.53;5112875;28;20080;-78
2023/04/07 07:15:51;;;;;;;8.65;4.50;;;;;;;7.82;45.58;92290.00;5129100;28;20500;-77
2023/04/07 07:18:18;;;;;;;13.98;7.93;;;;;;;7.52;45.66;92294.41;5110675;28;20551;-77
2023/04/07 07:20:43;;;;;;;13.88;7.43;;;;;;;7.43;45.92;92288.19;5110300;28;20023;-78
2023/04/07 07:23:09;;;;;;;17.17;8.95;;;;;;;7.24;46.57;92288.81;5130352;28;20031;-77
2023/04/07 07:25:35;;;;;;;9.52;5.20;;;;;;;7.19;47.29;92288.88;5110758;28;20060;-78
2023/04/07 07:28:00;;;;;;;25.60;9.38;;;;;;;7.10;47.35;92285.28;5128809;28;20473;-77
2023/04/07 07:30:26;;;;;;;17.27;8.07;;;;;;;7.03;47.57;92287.41;5109988;28;20041;-77
2023/04/07 07:32:53;;;;;;;26.88;10.63;;;;;;;7.09;48.47;92291.50;5126446;28;20023;-77
2023/04/07 07:35:20;;;;;;;18.75;9.07;;;;;;;7.11;48.17;92280.84;5125047;28;20031;-78
2023/04/07 07:37:45;;;;;;;19.45;7.82;;;;;;;7.13;47.46;92289.94;5129921;28;20027;-77
2023/04/07 07:40:11;;;;;;;13.90;7.63;;;;;;;6.99;47.68;92283.78;5129175;28;20050;-79
2023/04/07 07:42:37;;;;;;;15.02;7.75;;;;;;;7.09;47.92;92283.72;5110375;28;20027;-78
2023/04/07 07:45:03;;;;;;;17.27;9.40;;;;;;;7.03;48.56;92277.75;5110044;28;20111;-79
2023/04/07 07:47:30;;;;;;;14.82;7.32;;;;;;;7.08;48.49;92274.34;5127269;28;20031;-79
2023/04/07 07:49:55;;;;;;;15.05;7.07;;;;;;;7.20;48.09;92280.00;5130805;28;20053;-77
2023/04/07 07:52:21;;;;;;;20.15;8.38;;;;;;;7.43;47.46;92273.34;5130916;27;20048;-78
2023/04/07 07:54:47;;;;;;;15.85;8.02;;;;;;;7.72;46.63;92280.41;5132446;27;20039;-78
2023/04/07 07:57:13;;;;;;;25.35;9.70;;;;;;;7.58;46.75;92264.63;5115054;27;20033;-79
2023/04/07 07:59:40;;;;;;;9.73;4.65;;;;;;;8.10;44.97;92276.19;5129805;27;20469;-79
2023/04/07 08:02:06;;;;;;;16.27;8.18;;;;;;;8.14;46.47;92271.97;5130808;27;20042;-78
2023/04/07 08:04:32;;;;;;;16.27;9.60;;;;;;;8.32;45.00;92274.94;5131255;27;20053;-78
2023/04/07 08:06:57;;;;;;;16.50;8.05;;;;;;;8.33;47.38;92276.47;5128250;27;20019;-78
2023/04/07 08:09:23;;;;;;;18.60;9.10;;;;;;;8.37;47.89;92277.47;5092993;27;20035;-78
2023/04/07 08:11:50;;;;;;;17.02;9.20;;;;;;;8.29;46.18;92278.09;5129502;27;20434;-78
2023/04/07 08:14:16;;;;;;;17.45;8.35;;;;;;;8.39;46.90;92283.19;5113337;27;20092;-78
2023/04/07 08:16:42;;;;;;;14.95;8.82;;;;;;;8.45;46.41;92286.56;5109749;27;20087;-77
2023/04/07 08:19:08;;;;;;;12.38;6.68;;;;;;;8.39;46.47;92285.03;5125908;27;20039;-78
2023/04/07 08:21:34;;;;;;;10.52;6.57;;;;;;;8.14;44.91;92286.84;5128692;27;20409;-78
2023/04/07 08:24:00;;;;;;;15.20;8.32;;;;;;;8.13;46.34;92293.13;5108557;27;20035;-78
2023/04/07 08:26:26;;;;;;;18.27;8.50;;;;;;;8.15;46.14;92298.84;5128895;27;20089;-77
2023/04/07 08:28:52;;;;;;;17.90;8.82;;;;;;;8.05;46.15;92302.28;5126121;27;20545;-77
2023/04/07 08:31:18;;;;;;;16.02;8.35;;;;;;;7.81;48.65;92299.63;5109210;27;20508;-77
2023/04/07 08:33:44;;;;;;;14.02;7.47;;;;;;;7.81;48.45;92309.28;5124872;27;20042;-78
2023/04/07 08:36:10;;;;;;;17.75;6.63;;;;;;;7.77;47.96;92309.06;5131842;27;20027;-78
2023/04/07 08:38:35;;;;;;;16.83;9.05;;;;;;;7.64;49.02;92314.88;5132047;27;20484;-78
2023/04/07 08:41:09;;;;;;;13.13;5.43;;;;;;;7.48;47.23;92311.59;5125325;27;20087;-78
2023/04/07 08:43:35;;;;;;;15.38;8.40;;;;;;;7.56;49.08;92312.84;5128804;27;20114;-78
2023/04/07 08:46:01;;;;;;;20.13;9.35;;;;;;;7.68;49.33;92321.13;5127244;27;20035;-78
2023/04/07 08:48:32;;;;;;;20.38;9.57;;;;;;;7.74;48.35;92316.63;5128709;27;20446;-78
2023/04/07 08:51:07;;;;;;;20.08;10.20;;;;;;;7.85;48.76;92320.72;5108406;27;20046;-79
2023/04/07 08:53:53;;;;;;;17.77;9.90;;;;;;;7.95;47.41;92319.84;5130357;27;20058;-78
2023/04/07 08:56:20;;;;;;;12.57;7.53;;;;;;;8.24;48.91;92317.25;5108699;27;20027;-78
2023/04/07 08:58:47;;;;;;;9.23;4.35;;;;;;;8.30;48.41;92310.94;5109782;27;20046;-78
2023/04/07 09:01:17;;;;;;;12.82;5.63;;;;;;;7.91;49.50;92317.78;5089257;27;20042;-78
2023/04/07 09:03:47;;;;;;;22.02;9.15;;;;;;;7.72;49.57;92317.69;5107807;27;20031;-77
2023/04/07 09:06:13;;;;;;;15.23;7.40;;;;;;;7.62;49.54;92320.34;5129263;27;20047;-78
2023/04/07 09:08:38;;;;;;;13.20;7.25;;;;;;;7.49;49.20;92310.56;5125959;27;20028;-77
2023/04/07 09:11:04;;;;;;;18.95;9.07;;;;;;;7.29;50.29;92311.44;5107982;27;20031;-78
2023/04/07 09:13:30;;;;;;;14.15;7.03;;;;;;;7.39;49.24;92308.03;5130397;27;20027;-78
2023/04/07 09:15:56;;;;;;;14.50;7.15;;;;;;;7.26;50.68;92309.41;5127742;27;20039;-78
2023/04/07 09:18:22;;;;;;;16.98;8.48;;;;;;;7.24;50.10;92312.25;5127529;27;20626;-78
2023/04/07 09:21:04;;;;;;;15.18;8.80;;;;;;;7.09;51.63;92305.31;5125537;27;20045;-78
2023/04/07 09:23:35;;;;;;;14.97;8.47;;;;;;;7.16;51.32;92315.44;5126020;27;20061;-78
2023/04/07 09:26:20;;;;;;;17.80;9.07;;;;;;;7.19;50.86;92303.72;5127277;27;20023;-77
2023/04/07 09:28:54;;;;;;;24.98;9.38;;;;;;;7.17;50.82;92311.78;5130724;27;20075;-79
2023/04/07 09:31:22;;;;;;;21.02;9.43;;;;;;;7.21;50.31;92312.81;5129150;27;20030;-80
2023/04/07 09:33:48;;;;;;;19.58;9.15;;;;;;;7.33;50.98;92314.31;5130926;27;20031;-80
2023/04/07 09:36:14;;;;;;;15.70;7.80;;;;;;;7.38;50.96;92315.03;5114345;27;20035;-79
2023/04/07 09:38:41;;;;;;;17.65;8.25;;;;;;;7.58;51.44;92310.75;5111031;27;20084;-77
2023/04/07 09:41:12;;;;;;;19.60;8.82;;;;;;;7.46;51.62;92321.53;5112239;27;20070;-79
2023/04/07 09:43:40;;;;;;;11.52;5.43;;;;;;;7.50;50.98;92325.16;5112437;27;20031;-77
2023/04/07 09:46:15;;;;;;;20.95;10.20;;;;;;;7.25;51.31;92316.44;5128907;27;20032;-79
2023/04/07 09:48:42;;;;;;;17.92;8.95;;;;;;;7.39;51.73;92321.03;5127779;27;20119;-79
2023/04/07 09:51:09;;;;;;;16.67;8.98;;;;;;;7.47;52.71;92320.47;5090511;27;20085;-81
2023/04/07 09:53:46;;;;;;;9.95;5.65;;;;;;;7.62;50.55;92322.19;5128715;27;20070;-80
2023/04/07 09:56:15;;;;;;;21.88;10.10;;;;;;;7.61;50.77;92318.81;5109624;27;20019;-80
2023/04/07 09:58:42;;;;;;;19.33;10.05;;;;;;;7.61;50.26;92324.03;5128226;27;20030;-76
2023/04/07 10:01:08;;;;;;;21.48;10.35;;;;;;;7.67;51.06;92325.53;5126247;27;20035;-80
2023/04/07 10:03:35;;;;;;;16.42;9.55;;;;;;;7.69;50.84;92320.81;5109826;27;20039;-78
2023/04/07 10:06:01;;;;;;;14.77;8.25;;;;;;;7.71;50.68;92321.34;5108900;27;20027;-77
2023/04/07 10:08:27;;;;;;;17.05;8.52;;;;;;;7.66;50.06;92323.22;5123447;27;20034;-78
2023/04/07 10:10:56;;;;;;;20.45;10.15;;;;;;;7.55;50.84;92322.50;5126381;27;20045;-81
2023/04/07 10:13:23;;;;;;;23.02;10.63;;;;;;;7.66;52.15;92318.78;5111791;27;20160;-80
2023/04/07 10:15:49;;;;;;;17.95;9.10;;;;;;;7.69;50.45;92310.41;5110192;27;20032;-81
2023/04/07 10:18:17;;;;;;;20.33;10.52;;;;;;;7.79;51.67;92312.19;5128102;27;20401;-81
2023/04/07 10:20:44;;;;;;;21.92;10.63;;;;;;;7.77;52.20;92316.88;5130023;27;20043;-81
2023/04/07 10:23:19;;;;;;;20.92;11.25;;;;;;;7.54;52.48;92312.34;5130019;27;20065;-80
2023/04/07 10:25:49;;;;;;;22.05;11.30;;;;;;;7.64;51.00;92318.25;5124874;27;20027;-76
2023/04/07 10:28:16;;;;;;;27.83;11.35;;;;;;;7.83;50.98;92307.19;5110785;27;20031;-80
2023/04/07 10:30:43;;;;;;;23.95;11.63;;;;;;;7.90;51.14;92320.66;5112820;27;20039;-78
2023/04/07 10:33:09;;;;;;;28.98;12.63;;;;;;;7.87;51.62;92313.41;5128579;27;20047;-78
2023/04/07 10:36:12;;;;;;;14.85;8.32;;;;;;;8.05;49.84;92315.34;5108349;27;20027;-79
2023/04/07 10:38:38;;;;;;;21.67;11.15;;;;;;;8.05;48.73;92304.13;5127325;27;20591;-79
2023/04/07 10:41:35;;;;;;;19.98;11.38;;;;;;;8.12;49.06;92315.78;5128118;27;20163;-79
2023/04/07 10:44:02;;;;;;;21.35;9.93;;;;;;;8.27;48.41;92306.28;5107878;27;20036;-79
2023/04/07 10:46:50;;;;;;;19.38;10.85;;;;;;;8.27;49.12;92311.50;5108625;27;20035;-79
2023/04/07 10:49:17;;;;;;;19.08;10.55;;;;;;;8.33;48.74;92312.97;5126609;27;20043;-79
2023/04/07 10:54:17;;;;;;;18.73;9.48;;;;;;;8.60;47.51;92309.09;5126976;27;20125;-79
2023/04/07 10:57:20;;;;;;;21.25;10.02;;;;;;;8.69;48.77;92312.66;5129400;27;20408;-78
2023/04/07 11:00:10;;;;;;;10.63;5.18;;;;;;;8.69;47.16;92297.78;5050713;28;20024;-77
2023/04/07 11:02:38;;;;;;;16.15;6.97;;;;;;;8.44;47.36;92298.81;5105820;28;20502;-80
2023/04/07 11:05:05;;;;;;;11.65;6.43;;;;;;;8.55;46.76;92297.66;5110990;27;20079;-76
2023/04/07 11:07:49;;;;;;;11.43;6.82;;;;;;;8.50;48.28;92304.78;5125462;27;20035;-79
2023/04/07 11:10:15;;;;;;;10.00;5.88;;;;;;;8.61;46.69;92301.00;5124228;27;20039;-79
2023/04/07 11:12:42;;;;;;;13.02;6.13;;;;;;;8.84;46.90;92289.00;5128664;28;20039;-77
2023/04/07 11:15:21;;;;;;;13.27;5.82;;;;;;;9.02;46.66;92294.53;5125905;27;20035;-76
2023/04/07 11:18:17;;;;;;;12.63;5.65;;;;;;;9.21;44.58;92284.88;5127818;27;20072;-79
2023/04/07 11:20:48;;;;;;;13.80;6.28;;;;;;;9.06;44.16;92290.31;5128470;27;20027;-77
2023/04/07 11:23:15;;;;;;;10.40;5.80;;;;;;;9.06;45.39;92292.91;5128416;27;20027;-79
2023/04/07 11:25:43;;;;;;;12.00;6.40;;;;;;;9.28;46.77;92293.13;5123551;27;20072;-79
2023/04/07 11:28:11;;;;;;;10.27;6.25;;;;;;;9.64;44.93;92289.25;5126690;27;20596;-77
2023/04/07 11:30:36;;;;;;;12.63;6.00;;;;;;;9.84;44.96;92283.72;5108707;27;20031;-77
2023/04/07 11:33:02;;;;;;;10.82;5.68;;;;;;;10.13;44.89;92286.09;5112847;27;20038;-76
2023/04/07 11:35:28;;;;;;;9.25;4.88;;;;;;;10.32;43.08;92285.28;5131210;27;20042;-79
2023/04/07 11:38:01;;;;;;;11.73;5.47;;;;;;;10.11;42.19;92284.81;5131642;27;20039;-80
2023/04/07 11:40:36;;;;;;;10.57;5.85;;;;;;;9.98;42.41;92287.13;5131067;27;20513;-79
2023/04/07 11:43:02;;;;;;;9.35;5.55;;;;;;;10.14;43.50;92282.41;5130659;27;20028;-79
2023/04/07 11:45:28;;;;;;;7.55;4.65;;;;;;;10.17;42.78;92276.59;5134005;27;20110;-79